< < Back
Terminal Aerodrome Forecast


Current Version              Previous Versions:   1  2  3  4  5  6  7  8  9  

Terminal Aerodrome Forecast

988
FTAK31 PAJN 192300 RRA
TAFAHN
TAF
PAHN 192346Z 2000/2024 30013KT P6SM BKN150
     FM200300 30008KT P6SM SCT050 BKN100
     FM200900 30005KT P6SM VCSH BKN050 BKN100
     FM201200 VRB05KT P6SM -RA BKN040 OVC080
     FM201500 09006KT P6SM -RA SCT020 OVC040
     FM201800 12008KT P6SM -RA OVC050
      AMD LTD TO CLD VIS AND WIND=

Latest METAR

377
SAUS70 KWBC 201100 RRA
MTRAHN
METAR KAHN 201051Z AUTO 03003KT 10SM OVC043 10/07 A3019 RMK AO2 SLP226
T01000067


USA.gov is the U.S. government's official web portal to all federal, state and local government web resources and services.